sensor_id;sensor_type;location;lat;lon;timestamp;pressure;altitude;pressure_sealevel;temperature;humidity
40574;BME280;26283;49.020;8.644;2023-01-25T00:01:46;101008.81;;;6.26;61.93
40574;BME280;26283;49.020;8.644;2023-01-25T00:04:11;101007.97;;;6.25;61.93
40574;BME280;26283;49.020;8.644;2023-01-25T00:06:36;101014.31;;;6.24;61.92
40574;BME280;26283;49.020;8.644;2023-01-25T00:09:03;100993.72;;;6.25;61.92
40574;BME280;26283;49.020;8.644;2023-01-25T00:11:28;101000.78;;;6.26;61.92
40574;BME280;26283;49.020;8.644;2023-01-25T00:13:54;100991.91;;;6.25;61.92
40574;BME280;26283;49.020;8.644;2023-01-25T00:16:20;100986.53;;;6.25;61.93
40574;BME280;26283;49.020;8.644;2023-01-25T00:18:47;100991.91;;;6.25;61.93
40574;BME280;26283;49.020;8.644;2023-01-25T00:21:17;100988.38;;;6.25;61.93
40574;BME280;26283;49.020;8.644;2023-01-25T00:23:43;100991.06;;;6.25;61.93
40574;BME280;26283;49.020;8.644;2023-01-25T00:26:08;100993.72;;;6.25;61.93
40574;BME280;26283;49.020;8.644;2023-01-25T00:28:34;100988.38;;;6.25;61.94
40574;BME280;26283;49.020;8.644;2023-01-25T00:31:01;100984.84;;;6.24;61.95
40574;BME280;26283;49.020;8.644;2023-01-25T00:35:59;100985.69;;;6.25;61.96
40574;BME280;26283;49.020;8.644;2023-01-25T00:38:37;100981.19;;;6.25;61.95
40574;BME280;26283;49.020;8.644;2023-01-25T00:41:02;100976.81;;;6.24;61.95
40574;BME280;26283;49.020;8.644;2023-01-25T00:43:27;100974.16;;;6.24;61.95
40574;BME280;26283;49.020;8.644;2023-01-25T00:45:59;100974.00;;;6.26;61.96
40574;BME280;26283;49.020;8.644;2023-01-25T00:48:25;100970.62;;;6.24;61.95
40574;BME280;26283;49.020;8.644;2023-01-25T00:50:50;100967.94;;;6.24;61.95
40574;BME280;26283;49.020;8.644;2023-01-25T00:53:15;100958.22;;;6.23;61.97
40574;BME280;26283;49.020;8.644;2023-01-25T00:55:41;100959.06;;;6.23;61.97
40574;BME280;26283;49.020;8.644;2023-01-25T00:58:15;100956.25;;;6.25;61.96
40574;BME280;26283;49.020;8.644;2023-01-25T01:00:40;100955.41;;;6.24;61.96
40574;BME280;26283;49.020;8.644;2023-01-25T01:03:05;100944.69;;;6.24;61.96
40574;BME280;26283;49.020;8.644;2023-01-25T01:05:31;100944.84;;;6.23;61.97
40574;BME280;26283;49.020;8.644;2023-01-25T01:07:56;100947.38;;;6.24;61.97
40574;BME280;26283;49.020;8.644;2023-01-25T01:10:21;100942.16;;;6.23;61.99
40574;BME280;26283;49.020;8.644;2023-01-25T01:12:47;100949.22;;;6.24;61.98
40574;BME280;26283;49.020;8.644;2023-01-25T01:15:12;100948.38;;;6.23;61.99
40574;BME280;26283;49.020;8.644;2023-01-25T01:17:37;100943.84;;;6.24;61.98
40574;BME280;26283;49.020;8.644;2023-01-25T01:20:03;100948.38;;;6.23;61.99
40574;BME280;26283;49.020;8.644;2023-01-25T01:22:28;100959.91;;;6.24;61.98
40574;BME280;26283;49.020;8.644;2023-01-25T01:24:54;100955.41;;;6.24;61.98
40574;BME280;26283;49.020;8.644;2023-01-25T01:27:19;100946.53;;;6.24;61.98
40574;BME280;26283;49.020;8.644;2023-01-25T01:29:44;100950.06;;;6.24;61.97
40574;BME280;26283;49.020;8.644;2023-01-25T01:32:10;100951.72;;;6.25;61.97
40574;BME280;26283;49.020;8.644;2023-01-25T01:34:35;100948.22;;;6.25;61.96
40574;BME280;26283;49.020;8.644;2023-01-25T01:37:01;100942.88;;;6.25;61.97
40574;BME280;26283;49.020;8.644;2023-01-25T01:39:26;100942.88;;;6.25;61.98
40574;BME280;26283;49.020;8.644;2023-01-25T01:41:51;100945.53;;;6.25;61.97
40574;BME280;26283;49.020;8.644;2023-01-25T01:44:19;100946.38;;;6.25;61.97
40574;BME280;26283;49.020;8.644;2023-01-25T01:46:54;100942.88;;;6.25;61.97
40574;BME280;26283;49.020;8.644;2023-01-25T01:49:24;100942.88;;;6.25;61.97
40574;BME280;26283;49.020;8.644;2023-01-25T01:51:58;100945.53;;;6.25;61.97
40574;BME280;26283;49.020;8.644;2023-01-25T01:54:39;100946.38;;;6.25;61.98
40574;BME280;26283;49.020;8.644;2023-01-25T01:57:09;100947.38;;;6.24;61.96
40574;BME280;26283;49.020;8.644;2023-01-25T01:59:43;100945.53;;;6.25;61.96
40574;BME280;26283;49.020;8.644;2023-01-25T02:02:12;100948.22;;;6.25;61.96
40574;BME280;26283;49.020;8.644;2023-01-25T02:04:39;100952.59;;;6.26;61.97
40574;BME280;26283;49.020;8.644;2023-01-25T02:07:22;100940.19;;;6.25;61.96
40574;BME280;26283;49.020;8.644;2023-01-25T02:09:49;100942.88;;;6.25;61.97
40574;BME280;26283;49.020;8.644;2023-01-25T02:12:16;100937.50;;;6.25;61.96
40574;BME280;26283;49.020;8.644;2023-01-25T02:14:47;100932.16;;;6.25;61.97
40574;BME280;26283;49.020;8.644;2023-01-25T02:17:13;100938.34;;;6.25;61.99
40574;BME280;26283;49.020;8.644;2023-01-25T02:22:42;100936.66;;;6.24;61.99
40574;BME280;26283;49.020;8.644;2023-01-25T02:25:11;100945.53;;;6.25;61.96
40574;BME280;26283;49.020;8.644;2023-01-25T02:27:40;100934.84;;;6.25;61.97
40574;BME280;26283;49.020;8.644;2023-01-25T02:30:08;100939.34;;;6.24;61.99
40574;BME280;26283;49.020;8.644;2023-01-25T02:32:33;100931.31;;;6.24;62.00
40574;BME280;26283;49.020;8.644;2023-01-25T02:34:59;100930.47;;;6.24;62.01
40574;BME280;26283;49.020;8.644;2023-01-25T02:37:25;100925.09;;;6.24;62.01
40574;BME280;26283;49.020;8.644;2023-01-25T02:39:51;100922.44;;;6.24;62.01
40574;BME280;26283;49.020;8.644;2023-01-25T02:42:16;100920.59;;;6.24;62.00
40574;BME280;26283;49.020;8.644;2023-01-25T02:44:42;100917.91;;;6.24;62.01
40574;BME280;26283;49.020;8.644;2023-01-25T02:47:08;100920.44;;;6.26;62.00
40574;BME280;26283;49.020;8.644;2023-01-25T02:49:35;100913.41;;;6.25;61.99
40574;BME280;26283;49.020;8.644;2023-01-25T02:52:01;100916.09;;;6.25;62.00
40574;BME280;26283;49.020;8.644;2023-01-25T02:54:26;100907.22;;;6.24;62.01
40574;BME280;26283;49.020;8.644;2023-01-25T02:56:52;100907.22;;;6.24;62.01
40574;BME280;26283;49.020;8.644;2023-01-25T02:59:17;100910.88;;;6.23;62.02
40574;BME280;26283;49.020;8.644;2023-01-25T03:01:43;100909.88;;;6.24;62.01
40574;BME280;26283;49.020;8.644;2023-01-25T03:04:09;100912.56;;;6.24;62.02
40574;BME280;26283;49.020;8.644;2023-01-25T03:06:35;100911.72;;;6.24;62.02
40574;BME280;26283;49.020;8.644;2023-01-25T03:09:02;100907.22;;;6.24;62.01
40574;BME280;26283;49.020;8.644;2023-01-25T03:11:27;100902.69;;;6.25;62.01
40574;BME280;26283;49.020;8.644;2023-01-25T03:13:52;100898.34;;;6.24;62.01
40574;BME280;26283;49.020;8.644;2023-01-25T03:16:18;100904.53;;;6.24;62.01
40574;BME280;26283;49.020;8.644;2023-01-25T03:18:43;100901.00;;;6.24;62.01
40574;BME280;26283;49.020;8.644;2023-01-25T03:21:14;100901.84;;;6.24;62.01
40574;BME280;26283;49.020;8.644;2023-01-25T03:23:41;100902.69;;;6.25;62.02
40574;BME280;26283;49.020;8.644;2023-01-25T03:26:12;100902.69;;;6.25;62.01
40574;BME280;26283;49.020;8.644;2023-01-25T03:28:39;100901.84;;;6.24;62.02
40574;BME280;26283;49.020;8.644;2023-01-25T03:31:06;100893.97;;;6.23;62.02
40574;BME280;26283;49.020;8.644;2023-01-25T03:33:31;100892.97;;;6.24;62.02
40574;BME280;26283;49.020;8.644;2023-01-25T03:35:57;100891.16;;;6.24;62.02
40574;BME280;26283;49.020;8.644;2023-01-25T03:38:23;100891.16;;;6.24;62.02
40574;BME280;26283;49.020;8.644;2023-01-25T03:40:48;100892.97;;;6.24;62.02
40574;BME280;26283;49.020;8.644;2023-01-25T03:43:14;100890.31;;;6.24;62.03
40574;BME280;26283;49.020;8.644;2023-01-25T03:45:39;100887.63;;;6.24;62.03
40574;BME280;26283;49.020;8.644;2023-01-25T03:48:05;100895.66;;;6.24;62.04
40574;BME280;26283;49.020;8.644;2023-01-25T03:50:31;100890.31;;;6.24;62.04
40574;BME280;26283;49.020;8.644;2023-01-25T03:52:59;100888.63;;;6.23;62.04
40574;BME280;26283;49.020;8.644;2023-01-25T03:55:51;100890.31;;;6.24;62.04
40574;BME280;26283;49.020;8.644;2023-01-25T03:58:16;100891.16;;;6.24;62.01
40574;BME280;26283;49.020;8.644;2023-01-25T04:00:42;100897.50;;;6.23;62.04
40574;BME280;26283;49.020;8.644;2023-01-25T04:03:07;100892.13;;;6.23;62.05
40574;BME280;26283;49.020;8.644;2023-01-25T04:05:32;100892.13;;;6.23;62.06
40574;BME280;26283;49.020;8.644;2023-01-25T04:07:58;100889.47;;;6.23;62.06
40574;BME280;26283;49.020;8.644;2023-01-25T04:10:23;100897.34;;;6.25;62.06
40574;BME280;26283;49.020;8.644;2023-01-25T04:12:48;100892.97;;;6.24;62.06
40574;BME280;26283;49.020;8.644;2023-01-25T04:15:14;100900.88;;;6.25;62.06
40574;BME280;26283;49.020;8.644;2023-01-25T04:17:39;100892.97;;;6.24;62.05
40574;BME280;26283;49.020;8.644;2023-01-25T04:20:05;100893.97;;;6.23;62.05
40574;BME280;26283;49.020;8.644;2023-01-25T04:22:30;100897.34;;;6.25;62.05
40574;BME280;26283;49.020;8.644;2023-01-25T04:24:56;100893.97;;;6.23;62.06
40574;BME280;26283;49.020;8.644;2023-01-25T04:27:21;100893.97;;;6.23;62.08
40574;BME280;26283;49.020;8.644;2023-01-25T04:29:46;100887.63;;;6.24;62.08
40574;BME280;26283;49.020;8.644;2023-01-25T04:32:12;100878.75;;;6.23;62.08
40574;BME280;26283;49.020;8.644;2023-01-25T04:34:37;100872.41;;;6.24;62.06
40574;BME280;26283;49.020;8.644;2023-01-25T04:37:02;100873.41;;;6.23;62.06
40574;BME280;26283;49.020;8.644;2023-01-25T04:39:28;100869.88;;;6.23;62.07
40574;BME280;26283;49.020;8.644;2023-01-25T04:41:53;100873.41;;;6.23;62.07
40574;BME280;26283;49.020;8.644;2023-01-25T04:44:18;100869.88;;;6.23;62.08
40574;BME280;26283;49.020;8.644;2023-01-25T04:46:44;100869.88;;;6.23;62.08
40574;BME280;26283;49.020;8.644;2023-01-25T04:49:09;100869.72;;;6.24;62.07
40574;BME280;26283;49.020;8.644;2023-01-25T04:51:34;100879.59;;;6.24;62.07
40574;BME280;26283;49.020;8.644;2023-01-25T04:54:00;100873.41;;;6.23;62.08
40574;BME280;26283;49.020;8.644;2023-01-25T04:56:25;100871.72;;;6.22;62.08
40574;BME280;26283;49.020;8.644;2023-01-25T04:58:50;100868.88;;;6.24;62.08
40574;BME280;26283;49.020;8.644;2023-01-25T05:01:16;100871.72;;;6.22;62.10
40574;BME280;26283;49.020;8.644;2023-01-25T05:03:41;100867.34;;;6.21;62.09
40574;BME280;26283;49.020;8.644;2023-01-25T05:06:06;100871.72;;;6.22;62.11
40574;BME280;26283;49.020;8.644;2023-01-25T05:08:32;100861.00;;;6.22;62.11
40574;BME280;26283;49.020;8.644;2023-01-25T05:10:57;100869.88;;;6.23;62.10
40574;BME280;26283;49.020;8.644;2023-01-25T05:13:22;100872.56;;;6.23;62.11
40574;BME280;26283;49.020;8.644;2023-01-25T05:15:48;100864.53;;;6.23;62.11
40574;BME280;26283;49.020;8.644;2023-01-25T05:18:13;100863.69;;;6.22;62.10
40574;BME280;26283;49.020;8.644;2023-01-25T05:20:38;100869.03;;;6.22;62.11
40574;BME280;26283;49.020;8.644;2023-01-25T05:23:04;100869.03;;;6.22;62.12
40574;BME280;26283;49.020;8.644;2023-01-25T05:25:29;100866.38;;;6.22;62.12
40574;BME280;26283;49.020;8.644;2023-01-25T05:28:13;100860.16;;;6.22;62.11
40574;BME280;26283;49.020;8.644;2023-01-25T05:30:39;100867.19;;;6.23;62.10
40574;BME280;26283;49.020;8.644;2023-01-25T05:33:04;100870.87;;;6.22;62.11
40574;BME280;26283;49.020;8.644;2023-01-25T05:35:29;100862.00;;;6.21;62.12
40574;BME280;26283;49.020;8.644;2023-01-25T05:37:58;100862.84;;;6.22;62.12
40574;BME280;26283;49.020;8.644;2023-01-25T05:40:24;100870.87;;;6.22;62.13
40574;BME280;26283;49.020;8.644;2023-01-25T05:42:57;100865.53;;;6.22;62.12
40574;BME280;26283;49.020;8.644;2023-01-25T05:45:24;100867.34;;;6.21;62.13
40574;BME280;26283;49.020;8.644;2023-01-25T05:47:53;100866.22;;;6.24;62.13
40574;BME280;26283;49.020;8.644;2023-01-25T05:50:19;100867.34;;;6.21;62.14
40574;BME280;26283;49.020;8.644;2023-01-25T05:52:45;100868.19;;;6.22;62.13
40574;BME280;26283;49.020;8.644;2023-01-25T05:55:11;100871.72;;;6.22;62.13
40574;BME280;26283;49.020;8.644;2023-01-25T05:57:36;100863.69;;;6.22;62.13
40574;BME280;26283;49.020;8.644;2023-01-25T06:00:04;100870.87;;;6.22;62.13
40574;BME280;26283;49.020;8.644;2023-01-25T06:02:30;100862.84;;;6.22;62.13
40574;BME280;26283;49.020;8.644;2023-01-25T06:04:56;100845.94;;;6.21;62.13
40574;BME280;26283;49.020;8.644;2023-01-25T06:07:22;100852.28;;;6.20;62.14
40574;BME280;26283;49.020;8.644;2023-01-25T06:09:47;100842.41;;;6.21;62.15
40574;BME280;26283;49.020;8.644;2023-01-25T06:12:12;100838.75;;;6.22;62.14
40574;BME280;26283;49.020;8.644;2023-01-25T06:14:38;100843.25;;;6.21;62.14
40574;BME280;26283;49.020;8.644;2023-01-25T06:17:03;100834.22;;;6.22;62.13
40574;BME280;26283;49.020;8.644;2023-01-25T06:19:28;100828.03;;;6.22;62.12
40574;BME280;26283;49.020;8.644;2023-01-25T06:21:54;100821.84;;;6.21;62.12
40574;BME280;26283;49.020;8.644;2023-01-25T06:24:19;100822.69;;;6.22;62.13
40574;BME280;26283;49.020;8.644;2023-01-25T06:26:44;100815.66;;;6.21;62.13
40574;BME280;26283;49.020;8.644;2023-01-25T06:29:10;100810.28;;;6.21;62.14
40574;BME280;26283;49.020;8.644;2023-01-25T06:31:35;100821.00;;;6.21;62.14
40574;BME280;26283;49.020;8.644;2023-01-25T06:34:01;100822.69;;;6.22;62.14
40574;BME280;26283;49.020;8.644;2023-01-25T06:36:28;100815.66;;;6.21;62.14
40574;BME280;26283;49.020;8.644;2023-01-25T06:38:54;100815.66;;;6.21;62.14
40574;BME280;26283;49.020;8.644;2023-01-25T06:41:20;100819.16;;;6.21;62.15
40574;BME280;26283;49.020;8.644;2023-01-25T06:43:46;100819.31;;;6.19;62.15
40574;BME280;26283;49.020;8.644;2023-01-25T06:46:14;100809.44;;;6.20;62.15
40574;BME280;26283;49.020;8.644;2023-01-25T06:48:39;100814.66;;;6.22;62.16
40574;BME280;26283;49.020;8.644;2023-01-25T06:51:08;100812.97;;;6.21;62.15
40574;BME280;26283;49.020;8.644;2023-01-25T06:53:36;100813.13;;;6.19;62.17
40574;BME280;26283;49.020;8.644;2023-01-25T06:56:06;100814.81;;;6.20;62.17
40574;BME280;26283;49.020;8.644;2023-01-25T06:58:32;100814.81;;;6.20;62.15
40574;BME280;26283;49.020;8.644;2023-01-25T07:01:06;100818.31;;;6.21;62.15
40574;BME280;26283;49.020;8.644;2023-01-25T07:03:32;100820.16;;;6.20;62.17
40574;BME280;26283;49.020;8.644;2023-01-25T07:08:24;100819.31;;;6.19;62.17
40574;BME280;26283;49.020;8.644;2023-01-25T07:10:57;100819.47;;;6.18;62.19
40574;BME280;26283;49.020;8.644;2023-01-25T07:13:24;100821.16;;;6.19;62.19
40574;BME280;26283;49.020;8.644;2023-01-25T07:15:58;100817.63;;;6.18;62.19
40574;BME280;26283;49.020;8.644;2023-01-25T07:18:24;100816.63;;;6.19;62.20
40574;BME280;26283;49.020;8.644;2023-01-25T07:20:50;100815.78;;;6.19;62.18
40574;BME280;26283;49.020;8.644;2023-01-25T07:23:15;100805.94;;;6.19;62.20
40574;BME280;26283;49.020;8.644;2023-01-25T07:25:45;100808.59;;;6.19;62.20
40574;BME280;26283;49.020;8.644;2023-01-25T07:28:12;100810.44;;;6.19;62.20
40574;BME280;26283;49.020;8.644;2023-01-25T07:30:37;100813.13;;;6.19;62.19
40574;BME280;26283;49.020;8.644;2023-01-25T07:33:02;100807.75;;;6.19;62.19
40574;BME280;26283;49.020;8.644;2023-01-25T07:35:28;100805.09;;;6.19;62.19
40574;BME280;26283;49.020;8.644;2023-01-25T07:37:54;100816.63;;;6.19;62.19
40574;BME280;26283;49.020;8.644;2023-01-25T07:40:19;100810.44;;;6.19;62.19
40574;BME280;26283;49.020;8.644;2023-01-25T07:42:45;100812.28;;;6.18;62.19
40574;BME280;26283;49.020;8.644;2023-01-25T07:45:10;100812.28;;;6.18;62.20
40574;BME280;26283;49.020;8.644;2023-01-25T07:47:36;100804.25;;;6.18;62.20
40574;BME280;26283;49.020;8.644;2023-01-25T07:50:02;100808.75;;;6.18;62.20
40574;BME280;26283;49.020;8.644;2023-01-25T07:52:27;100814.13;;;6.18;62.21
40574;BME280;26283;49.020;8.644;2023-01-25T07:54:52;100810.59;;;6.17;62.21
40574;BME280;26283;49.020;8.644;2023-01-25T07:57:18;100808.75;;;6.18;62.21
40574;BME280;26283;49.020;8.644;2023-01-25T07:59:44;100815.94;;;6.17;62.22
40574;BME280;26283;49.020;8.644;2023-01-25T08:02:10;100811.44;;;6.18;62.21
40574;BME280;26283;49.020;8.644;2023-01-25T08:04:36;100812.44;;;6.17;62.22
40574;BME280;26283;49.020;8.644;2023-01-25T08:07:02;100820.31;;;6.18;62.22
40574;BME280;26283;49.020;8.644;2023-01-25T08:09:28;100810.59;;;6.17;62.22
40574;BME280;26283;49.020;8.644;2023-01-25T08:11:53;100805.25;;;6.17;62.22
40574;BME280;26283;49.020;8.644;2023-01-25T08:14:19;100812.28;;;6.18;62.22
40574;BME280;26283;49.020;8.644;2023-01-25T08:16:44;100808.91;;;6.16;62.23
40574;BME280;26283;49.020;8.644;2023-01-25T08:19:10;100814.13;;;6.18;62.23
40574;BME280;26283;49.020;8.644;2023-01-25T08:21:36;100804.41;;;6.17;62.23
40574;BME280;26283;49.020;8.644;2023-01-25T08:24:06;100807.06;;;6.17;62.23
40574;BME280;26283;49.020;8.644;2023-01-25T08:26:33;100811.44;;;6.18;62.23
40574;BME280;26283;49.020;8.644;2023-01-25T08:28:59;100812.28;;;6.18;62.22
40574;BME280;26283;49.020;8.644;2023-01-25T08:31:27;100805.25;;;6.17;62.22
40574;BME280;26283;49.020;8.644;2023-01-25T08:33:53;100806.91;;;6.18;62.22
40574;BME280;26283;49.020;8.644;2023-01-25T08:36:19;100797.34;;;6.16;62.23
40574;BME280;26283;49.020;8.644;2023-01-25T08:38:46;100799.87;;;6.17;62.22
40574;BME280;26283;49.020;8.644;2023-01-25T08:41:14;100803.41;;;6.18;62.23
40574;BME280;26283;49.020;8.644;2023-01-25T08:43:41;100799.87;;;6.17;62.23
40574;BME280;26283;49.020;8.644;2023-01-25T08:46:07;100792.84;;;6.16;62.25
40574;BME280;26283;49.020;8.644;2023-01-25T08:48:32;100793.69;;;6.17;62.25
40574;BME280;26283;49.020;8.644;2023-01-25T08:50:58;100787.50;;;6.16;62.26
40574;BME280;26283;49.020;8.644;2023-01-25T08:53:23;100792.84;;;6.16;62.27
40574;BME280;26283;49.020;8.644;2023-01-25T08:55:51;100787.50;;;6.16;62.27
40574;BME280;26283;49.020;8.644;2023-01-25T08:58:16;100787.50;;;6.16;62.27
40574;BME280;26283;49.020;8.644;2023-01-25T09:00:45;100788.34;;;6.17;62.27
40574;BME280;26283;49.020;8.644;2023-01-25T09:03:11;100783.81;;;6.17;62.26
40574;BME280;26283;49.020;8.644;2023-01-25T09:05:37;100782.97;;;6.17;62.26
40574;BME280;26283;49.020;8.644;2023-01-25T09:08:05;100782.97;;;6.17;62.26
40574;BME280;26283;49.020;8.644;2023-01-25T09:10:31;100779.47;;;6.16;62.27
40574;BME280;26283;49.020;8.644;2023-01-25T09:12:56;100782.97;;;6.17;62.26
40574;BME280;26283;49.020;8.644;2023-01-25T09:15:22;100776.94;;;6.15;62.28
40574;BME280;26283;49.020;8.644;2023-01-25T09:17:52;100776.78;;;6.16;62.28
40574;BME280;26283;49.020;8.644;2023-01-25T09:20:18;100774.09;;;6.16;62.28
40574;BME280;26283;49.020;8.644;2023-01-25T09:22:44;100777.62;;;6.17;62.26
40574;BME280;26283;49.020;8.644;2023-01-25T09:25:10;100777.62;;;6.17;62.26
40574;BME280;26283;49.020;8.644;2023-01-25T09:27:35;100770.59;;;6.16;62.27
40574;BME280;26283;49.020;8.644;2023-01-25T09:30:01;100776.78;;;6.16;62.28
40574;BME280;26283;49.020;8.644;2023-01-25T09:32:26;100767.91;;;6.16;62.29
40574;BME280;26283;49.020;8.644;2023-01-25T09:34:51;100776.94;;;6.15;62.29
40574;BME280;26283;49.020;8.644;2023-01-25T09:37:17;100776.78;;;6.16;62.30
40574;BME280;26283;49.020;8.644;2023-01-25T09:39:42;100769.75;;;6.15;62.30
40574;BME280;26283;49.020;8.644;2023-01-25T09:47:20;100769.75;;;6.15;62.31
40574;BME280;26283;49.020;8.644;2023-01-25T09:55:58;100774.25;;;6.15;62.33
40574;BME280;26283;49.020;8.644;2023-01-25T09:58:29;100768.06;;;6.14;62.29
40574;BME280;26283;49.020;8.644;2023-01-25T10:01:40;100764.53;;;6.14;62.31
40574;BME280;26283;49.020;8.644;2023-01-25T10:04:18;100772.56;;;6.14;62.35
40574;BME280;26283;49.020;8.644;2023-01-25T10:06:49;100770.75;;;6.14;62.31
40574;BME280;26283;49.020;8.644;2023-01-25T10:09:39;100766.37;;;6.13;62.33
40574;BME280;26283;49.020;8.644;2023-01-25T10:12:19;100769.06;;;6.13;62.36
40574;BME280;26283;49.020;8.644;2023-01-25T10:14:45;100765.53;;;6.13;62.36
40574;BME280;26283;49.020;8.644;2023-01-25T10:17:36;100766.37;;;6.13;62.36
40574;BME280;26283;49.020;8.644;2023-01-25T10:22:39;100755.69;;;6.13;62.36
40574;BME280;26283;49.020;8.644;2023-01-25T10:25:25;100753.00;;;6.13;62.38
40574;BME280;26283;49.020;8.644;2023-01-25T10:30:30;100752.00;;;6.14;62.37
40574;BME280;26283;49.020;8.644;2023-01-25T10:32:59;100748.50;;;6.14;62.38
40574;BME280;26283;49.020;8.644;2023-01-25T10:35:28;100743.97;;;6.14;62.38
40574;BME280;26283;49.020;8.644;2023-01-25T10:37:58;100740.47;;;6.14;62.38
40574;BME280;26283;49.020;8.644;2023-01-25T10:40:34;100736.94;;;6.13;62.38
40574;BME280;26283;49.020;8.644;2023-01-25T10:43:07;100737.63;;;6.15;62.37
40574;BME280;26283;49.020;8.644;2023-01-25T10:45:36;100735.94;;;6.14;62.37
40574;BME280;26283;49.020;8.644;2023-01-25T10:48:13;100734.09;;;6.15;62.36
40574;BME280;26283;49.020;8.644;2023-01-25T10:53:32;100727.91;;;6.14;62.37
40574;BME280;26283;49.020;8.644;2023-01-25T10:56:22;100725.25;;;6.14;62.37
40574;BME280;26283;49.020;8.644;2023-01-25T10:58:48;100720.88;;;6.13;62.35
40574;BME280;26283;49.020;8.644;2023-01-25T11:01:29;100719.03;;;6.14;62.35
40574;BME280;26283;49.020;8.644;2023-01-25T11:03:56;100713.69;;;6.14;62.37
40574;BME280;26283;49.020;8.644;2023-01-25T11:06:36;100714.53;;;6.14;62.36
40574;BME280;26283;49.020;8.644;2023-01-25T11:14:35;100705.50;;;6.15;62.37
40574;BME280;26283;49.020;8.644;2023-01-25T11:17:02;100706.34;;;6.16;62.30
40574;BME280;26283;49.020;8.644;2023-01-25T11:19:37;100702.00;;;6.15;62.25
40574;BME280;26283;49.020;8.644;2023-01-25T11:22:29;100689.59;;;6.14;62.27
40574;BME280;26283;49.020;8.644;2023-01-25T11:24:54;100688.75;;;6.13;62.32
40574;BME280;26283;49.020;8.644;2023-01-25T11:27:26;100683.41;;;6.13;62.27
40574;BME280;26283;49.020;8.644;2023-01-25T11:32:38;100677.22;;;6.13;62.32
40574;BME280;26283;49.020;8.644;2023-01-25T11:35:12;100675.38;;;6.13;62.28
40574;BME280;26283;49.020;8.644;2023-01-25T11:41:03;100663.81;;;6.13;62.31
40574;BME280;26283;49.020;8.644;2023-01-25T11:43:52;100657.47;;;6.14;62.27
40574;BME280;26283;49.020;8.644;2023-01-25T11:57:44;100634.53;;;6.11;62.33
40574;BME280;26283;49.020;8.644;2023-01-25T12:14:04;100601.28;;;6.14;62.32
40574;BME280;26283;49.020;8.644;2023-01-25T12:28:09;100582.53;;;6.14;62.35
40574;BME280;26283;49.020;8.644;2023-01-25T12:30:56;100572.81;;;6.13;62.35
40574;BME280;26283;49.020;8.644;2023-01-25T12:33:32;100563.97;;;6.12;62.36
40574;BME280;26283;49.020;8.644;2023-01-25T12:39:13;100546.91;;;6.13;62.37
40574;BME280;26283;49.020;8.644;2023-01-25T12:44:20;100546.91;;;6.13;62.35
40574;BME280;26283;49.020;8.644;2023-01-25T12:46:55;100546.06;;;6.13;62.36
40574;BME280;26283;49.020;8.644;2023-01-25T12:49:32;100537.19;;;6.12;62.37
40574;BME280;26283;49.020;8.644;2023-01-25T12:52:05;100531.16;;;6.10;62.38
40574;BME280;26283;49.020;8.644;2023-01-25T12:54:34;100528.16;;;6.13;62.37
40574;BME280;26283;49.020;8.644;2023-01-25T12:57:25;100532.53;;;6.14;62.36
40574;BME280;26283;49.020;8.644;2023-01-25T13:11:08;100496.72;;;6.15;62.33
40574;BME280;26283;49.020;8.644;2023-01-25T13:13:35;100497.56;;;6.16;62.29
40574;BME280;26283;49.020;8.644;2023-01-25T13:18:54;100491.37;;;6.15;62.35
40574;BME280;26283;49.020;8.644;2023-01-25T13:21:43;100485.19;;;6.15;62.30
40574;BME280;26283;49.020;8.644;2023-01-25T13:26:57;100479.00;;;6.14;62.29
40574;BME280;26283;49.020;8.644;2023-01-25T13:35:00;100478.00;;;6.15;62.29
40574;BME280;26283;49.020;8.644;2023-01-25T13:37:27;100461.25;;;6.13;62.32
40574;BME280;26283;49.020;8.644;2023-01-25T13:42:33;100458.41;;;6.15;62.33
40574;BME280;26283;49.020;8.644;2023-01-25T13:47:34;100455.59;;;6.16;62.30
40574;BME280;26283;49.020;8.644;2023-01-25T13:50:20;100449.38;;;6.16;62.31
40574;BME280;26283;49.020;8.644;2023-01-25T13:55:23;100443.19;;;6.15;62.28
40574;BME280;26283;49.020;8.644;2023-01-25T13:57:49;100455.41;;;6.18;62.27
40574;BME280;26283;49.020;8.644;2023-01-25T14:00:17;100462.62;;;6.17;62.28
40574;BME280;26283;49.020;8.644;2023-01-25T14:02:53;100464.44;;;6.17;62.28
40574;BME280;26283;49.020;8.644;2023-01-25T14:05:21;100460.94;;;6.16;62.30
40574;BME280;26283;49.020;8.644;2023-01-25T14:07:48;100457.25;;;6.17;62.26
40574;BME280;26283;49.020;8.644;2023-01-25T14:10:18;100455.41;;;6.18;62.26
40574;BME280;26283;49.020;8.644;2023-01-25T14:12:48;100454.59;;;6.17;62.26
40574;BME280;26283;49.020;8.644;2023-01-25T14:17:43;100452.75;;;6.18;62.25
40574;BME280;26283;49.020;8.644;2023-01-25T14:20:21;100451.06;;;6.17;62.24
40574;BME280;26283;49.020;8.644;2023-01-25T14:22:48;100444.88;;;6.16;62.25
40574;BME280;26283;49.020;8.644;2023-01-25T14:25:18;100438.53;;;6.17;62.22
40574;BME280;26283;49.020;8.644;2023-01-25T14:27:49;100439.38;;;6.18;62.23
40574;BME280;26283;49.020;8.644;2023-01-25T14:30:21;100437.53;;;6.18;62.23
40574;BME280;26283;49.020;8.644;2023-01-25T14:32:49;100434.00;;;6.18;62.24
40574;BME280;26283;49.020;8.644;2023-01-25T14:35:39;100433.16;;;6.17;62.23
40574;BME280;26283;49.020;8.644;2023-01-25T14:41:02;100424.31;;;6.17;62.23
40574;BME280;26283;49.020;8.644;2023-01-25T14:43:30;100416.28;;;6.17;62.21
40574;BME280;26283;49.020;8.644;2023-01-25T14:45:56;100413.59;;;6.17;62.22
40574;BME280;26283;49.020;8.644;2023-01-25T14:48:40;100402.87;;;6.17;62.23
40574;BME280;26283;49.020;8.644;2023-01-25T14:51:13;100413.44;;;6.18;62.24
40574;BME280;26283;49.020;8.644;2023-01-25T14:53:43;100403.72;;;6.17;62.21
40574;BME280;26283;49.020;8.644;2023-01-25T14:56:35;100403.72;;;6.17;62.23
40574;BME280;26283;49.020;8.644;2023-01-25T14:59:05;100397.53;;;6.17;62.25
40574;BME280;26283;49.020;8.644;2023-01-25T15:01:38;100396.53;;;6.18;62.22
40574;BME280;26283;49.020;8.644;2023-01-25T15:04:10;100396.69;;;6.16;62.24